sensor_id;sensor_type;location;lat;lon;timestamp;P1;durP1;ratioP1;P2;durP2;ratioP2
10430;SDS011;5262;59.958;17.726;2023-02-28T00:01:10;0.93;;;0.70;;
10430;SDS011;5262;59.958;17.726;2023-02-28T00:03:37;2.53;;;0.80;;
10430;SDS011;5262;59.958;17.726;2023-02-28T00:06:03;0.93;;;0.70;;
10430;SDS011;5262;59.958;17.726;2023-02-28T00:08:30;1.63;;;0.90;;
10430;SDS011;5262;59.958;17.726;2023-02-28T00:10:56;1.60;;;0.80;;
10430;SDS011;5262;59.958;17.726;2023-02-28T00:13:25;1.60;;;1.00;;
10430;SDS011;5262;59.958;17.726;2023-02-28T00:15:58;1.47;;;0.67;;
10430;SDS011;5262;59.958;17.726;2023-02-28T00:18:25;1.10;;;0.50;;
10430;SDS011;5262;59.958;17.726;2023-02-28T00:20:51;0.80;;;0.63;;
10430;SDS011;5262;59.958;17.726;2023-02-28T00:23:16;2.20;;;0.60;;
10430;SDS011;5262;59.958;17.726;2023-02-28T00:25:42;1.33;;;0.60;;
10430;SDS011;5262;59.958;17.726;2023-02-28T00:28:07;0.80;;;0.67;;
10430;SDS011;5262;59.958;17.726;2023-02-28T00:30:33;0.70;;;0.50;;
10430;SDS011;5262;59.958;17.726;2023-02-28T00:32:58;0.67;;;0.50;;
10430;SDS011;5262;59.958;17.726;2023-02-28T00:35:24;1.67;;;0.77;;
10430;SDS011;5262;59.958;17.726;2023-02-28T00:37:50;0.77;;;0.57;;
10430;SDS011;5262;59.958;17.726;2023-02-28T00:40:15;0.97;;;0.50;;
10430;SDS011;5262;59.958;17.726;2023-02-28T00:42:41;1.10;;;0.63;;
10430;SDS011;5262;59.958;17.726;2023-02-28T00:45:07;0.93;;;0.40;;
10430;SDS011;5262;59.958;17.726;2023-02-28T00:47:33;0.40;;;0.40;;
10430;SDS011;5262;59.958;17.726;2023-02-28T00:49:59;0.60;;;0.53;;
10430;SDS011;5262;59.958;17.726;2023-02-28T00:52:25;0.43;;;0.40;;
10430;SDS011;5262;59.958;17.726;2023-02-28T00:54:51;0.63;;;0.50;;
10430;SDS011;5262;59.958;17.726;2023-02-28T00:57:16;0.70;;;0.50;;
10430;SDS011;5262;59.958;17.726;2023-02-28T00:59:42;0.67;;;0.47;;
10430;SDS011;5262;59.958;17.726;2023-02-28T01:02:08;0.90;;;0.60;;
10430;SDS011;5262;59.958;17.726;2023-02-28T01:04:33;0.40;;;0.33;;
10430;SDS011;5262;59.958;17.726;2023-02-28T01:06:59;0.70;;;0.40;;
10430;SDS011;5262;59.958;17.726;2023-02-28T01:09:25;1.03;;;0.50;;
10430;SDS011;5262;59.958;17.726;2023-02-28T01:11:50;0.47;;;0.37;;
10430;SDS011;5262;59.958;17.726;2023-02-28T01:14:17;0.97;;;0.50;;
10430;SDS011;5262;59.958;17.726;2023-02-28T01:16:43;0.80;;;0.50;;
10430;SDS011;5262;59.958;17.726;2023-02-28T01:19:09;0.60;;;0.33;;
10430;SDS011;5262;59.958;17.726;2023-02-28T01:21:35;0.90;;;0.47;;
10430;SDS011;5262;59.958;17.726;2023-02-28T01:24:01;0.40;;;0.33;;
10430;SDS011;5262;59.958;17.726;2023-02-28T01:26:28;1.10;;;0.60;;
10430;SDS011;5262;59.958;17.726;2023-02-28T01:28:54;0.50;;;0.40;;
10430;SDS011;5262;59.958;17.726;2023-02-28T01:31:20;0.60;;;0.40;;
10430;SDS011;5262;59.958;17.726;2023-02-28T01:33:47;1.03;;;0.30;;
10430;SDS011;5262;59.958;17.726;2023-02-28T01:36:14;0.50;;;0.40;;
10430;SDS011;5262;59.958;17.726;2023-02-28T01:38:45;0.80;;;0.50;;
10430;SDS011;5262;59.958;17.726;2023-02-28T01:41:17;2.67;;;0.47;;
10430;SDS011;5262;59.958;17.726;2023-02-28T01:46:11;1.10;;;0.50;;
10430;SDS011;5262;59.958;17.726;2023-02-28T01:48:40;0.77;;;0.50;;
10430;SDS011;5262;59.958;17.726;2023-02-28T01:51:22;0.60;;;0.50;;
10430;SDS011;5262;59.958;17.726;2023-02-28T01:56:48;1.87;;;0.97;;
10430;SDS011;5262;59.958;17.726;2023-02-28T01:59:22;0.87;;;0.60;;
10430;SDS011;5262;59.958;17.726;2023-02-28T02:01:54;0.97;;;0.50;;
10430;SDS011;5262;59.958;17.726;2023-02-28T02:04:21;0.60;;;0.50;;
10430;SDS011;5262;59.958;17.726;2023-02-28T02:06:51;0.40;;;0.30;;
10430;SDS011;5262;59.958;17.726;2023-02-28T02:09:17;0.50;;;0.40;;
10430;SDS011;5262;59.958;17.726;2023-02-28T02:11:43;0.67;;;0.30;;
10430;SDS011;5262;59.958;17.726;2023-02-28T02:14:12;0.40;;;0.30;;
10430;SDS011;5262;59.958;17.726;2023-02-28T02:28:04;0.50;;;0.40;;
10430;SDS011;5262;59.958;17.726;2023-02-28T02:31:06;0.73;;;0.30;;
10430;SDS011;5262;59.958;17.726;2023-02-28T02:36:58;0.77;;;0.50;;
10430;SDS011;5262;59.958;17.726;2023-02-28T02:42:16;1.33;;;0.37;;
10430;SDS011;5262;59.958;17.726;2023-02-28T02:44:55;0.40;;;0.23;;
10430;SDS011;5262;59.958;17.726;2023-02-28T02:47:26;0.57;;;0.40;;
10430;SDS011;5262;59.958;17.726;2023-02-28T02:49:55;0.77;;;0.30;;
10430;SDS011;5262;59.958;17.726;2023-02-28T02:52:28;0.80;;;0.30;;
10430;SDS011;5262;59.958;17.726;2023-02-28T02:54:59;0.53;;;0.40;;
10430;SDS011;5262;59.958;17.726;2023-02-28T02:57:29;1.47;;;0.40;;
10430;SDS011;5262;59.958;17.726;2023-02-28T03:00:05;0.67;;;0.40;;
10430;SDS011;5262;59.958;17.726;2023-02-28T03:02:34;0.70;;;0.30;;
10430;SDS011;5262;59.958;17.726;2023-02-28T03:05:07;0.87;;;0.30;;
10430;SDS011;5262;59.958;17.726;2023-02-28T03:07:38;0.60;;;0.30;;
10430;SDS011;5262;59.958;17.726;2023-02-28T03:10:25;0.70;;;0.50;;
10430;SDS011;5262;59.958;17.726;2023-02-28T03:13:06;1.07;;;0.60;;
10430;SDS011;5262;59.958;17.726;2023-02-28T03:15:45;0.67;;;0.40;;
10430;SDS011;5262;59.958;17.726;2023-02-28T03:21:22;0.60;;;0.30;;
10430;SDS011;5262;59.958;17.726;2023-02-28T03:26:45;0.50;;;0.30;;
10430;SDS011;5262;59.958;17.726;2023-02-28T03:29:24;0.30;;;0.30;;
10430;SDS011;5262;59.958;17.726;2023-02-28T03:35:06;0.53;;;0.30;;
10430;SDS011;5262;59.958;17.726;2023-02-28T03:37:38;0.50;;;0.40;;
10430;SDS011;5262;59.958;17.726;2023-02-28T03:42:38;0.40;;;0.20;;
10430;SDS011;5262;59.958;17.726;2023-02-28T03:45:25;0.33;;;0.20;;
10430;SDS011;5262;59.958;17.726;2023-02-28T03:48:02;0.30;;;0.20;;
10430;SDS011;5262;59.958;17.726;2023-02-28T03:50:49;0.30;;;0.27;;
10430;SDS011;5262;59.958;17.726;2023-02-28T03:53:21;0.33;;;0.23;;
10430;SDS011;5262;59.958;17.726;2023-02-28T03:56:05;0.40;;;0.30;;
10430;SDS011;5262;59.958;17.726;2023-02-28T03:58:49;0.57;;;0.30;;
10430;SDS011;5262;59.958;17.726;2023-02-28T04:01:37;0.47;;;0.33;;
10430;SDS011;5262;59.958;17.726;2023-02-28T04:04:06;0.20;;;0.20;;
10430;SDS011;5262;59.958;17.726;2023-02-28T04:06:34;0.30;;;0.30;;
10430;SDS011;5262;59.958;17.726;2023-02-28T04:09:00;0.43;;;0.20;;
10430;SDS011;5262;59.958;17.726;2023-02-28T04:11:34;0.40;;;0.20;;
10430;SDS011;5262;59.958;17.726;2023-02-28T04:14:06;0.40;;;0.30;;
10430;SDS011;5262;59.958;17.726;2023-02-28T04:16:34;0.40;;;0.37;;
10430;SDS011;5262;59.958;17.726;2023-02-28T04:19:02;0.30;;;0.30;;
10430;SDS011;5262;59.958;17.726;2023-02-28T04:21:37;0.30;;;0.30;;
10430;SDS011;5262;59.958;17.726;2023-02-28T04:24:05;0.20;;;0.20;;
10430;SDS011;5262;59.958;17.726;2023-02-28T04:26:32;0.30;;;0.20;;
10430;SDS011;5262;59.958;17.726;2023-02-28T04:29:00;0.70;;;0.50;;
10430;SDS011;5262;59.958;17.726;2023-02-28T04:31:28;0.43;;;0.30;;
10430;SDS011;5262;59.958;17.726;2023-02-28T04:33:54;0.50;;;0.20;;
10430;SDS011;5262;59.958;17.726;2023-02-28T04:36:19;0.40;;;0.30;;
10430;SDS011;5262;59.958;17.726;2023-02-28T04:38:45;0.37;;;0.27;;
10430;SDS011;5262;59.958;17.726;2023-02-28T04:41:12;0.40;;;0.30;;
10430;SDS011;5262;59.958;17.726;2023-02-28T04:43:38;0.27;;;0.20;;
10430;SDS011;5262;59.958;17.726;2023-02-28T04:46:04;0.40;;;0.27;;
10430;SDS011;5262;59.958;17.726;2023-02-28T04:48:31;0.47;;;0.33;;
10430;SDS011;5262;59.958;17.726;2023-02-28T04:51:02;0.47;;;0.30;;
10430;SDS011;5262;59.958;17.726;2023-02-28T04:53:29;0.87;;;0.20;;
10430;SDS011;5262;59.958;17.726;2023-02-28T04:55:55;0.50;;;0.30;;
10430;SDS011;5262;59.958;17.726;2023-02-28T04:58:24;0.77;;;0.43;;
10430;SDS011;5262;59.958;17.726;2023-02-28T05:00:50;0.67;;;0.40;;
10430;SDS011;5262;59.958;17.726;2023-02-28T05:03:16;0.63;;;0.30;;
10430;SDS011;5262;59.958;17.726;2023-02-28T05:05:42;0.50;;;0.40;;
10430;SDS011;5262;59.958;17.726;2023-02-28T05:08:07;0.60;;;0.50;;
10430;SDS011;5262;59.958;17.726;2023-02-28T05:10:34;0.50;;;0.40;;
10430;SDS011;5262;59.958;17.726;2023-02-28T05:13:00;0.67;;;0.40;;
10430;SDS011;5262;59.958;17.726;2023-02-28T05:15:26;1.30;;;0.73;;
10430;SDS011;5262;59.958;17.726;2023-02-28T05:17:51;0.80;;;0.40;;
10430;SDS011;5262;59.958;17.726;2023-02-28T05:20:17;1.07;;;0.50;;
10430;SDS011;5262;59.958;17.726;2023-02-28T05:22:43;0.30;;;0.30;;
10430;SDS011;5262;59.958;17.726;2023-02-28T05:25:13;0.63;;;0.40;;
10430;SDS011;5262;59.958;17.726;2023-02-28T05:27:42;0.47;;;0.37;;
10430;SDS011;5262;59.958;17.726;2023-02-28T05:30:08;1.20;;;0.70;;
10430;SDS011;5262;59.958;17.726;2023-02-28T05:32:38;0.70;;;0.53;;
10430;SDS011;5262;59.958;17.726;2023-02-28T05:35:08;0.40;;;0.40;;
10430;SDS011;5262;59.958;17.726;2023-02-28T05:37:35;1.13;;;0.43;;
10430;SDS011;5262;59.958;17.726;2023-02-28T05:40:02;0.53;;;0.40;;
10430;SDS011;5262;59.958;17.726;2023-02-28T05:42:31;0.40;;;0.40;;
10430;SDS011;5262;59.958;17.726;2023-02-28T05:44:56;0.63;;;0.40;;
10430;SDS011;5262;59.958;17.726;2023-02-28T05:47:22;1.37;;;0.40;;
10430;SDS011;5262;59.958;17.726;2023-02-28T05:49:48;1.90;;;0.60;;
10430;SDS011;5262;59.958;17.726;2023-02-28T05:52:13;0.60;;;0.40;;
10430;SDS011;5262;59.958;17.726;2023-02-28T05:54:40;0.50;;;0.30;;
10430;SDS011;5262;59.958;17.726;2023-02-28T05:57:06;1.90;;;0.53;;
10430;SDS011;5262;59.958;17.726;2023-02-28T05:59:31;0.33;;;0.30;;
10430;SDS011;5262;59.958;17.726;2023-02-28T06:01:58;0.50;;;0.40;;
10430;SDS011;5262;59.958;17.726;2023-02-28T06:04:23;1.10;;;0.37;;
10430;SDS011;5262;59.958;17.726;2023-02-28T06:06:49;0.60;;;0.50;;
10430;SDS011;5262;59.958;17.726;2023-02-28T06:09:16;0.80;;;0.40;;
10430;SDS011;5262;59.958;17.726;2023-02-28T06:11:42;0.70;;;0.40;;
10430;SDS011;5262;59.958;17.726;2023-02-28T06:14:12;0.80;;;0.43;;
10430;SDS011;5262;59.958;17.726;2023-02-28T06:16:41;1.07;;;0.50;;
10430;SDS011;5262;59.958;17.726;2023-02-28T06:19:08;0.50;;;0.40;;
10430;SDS011;5262;59.958;17.726;2023-02-28T06:21:34;0.60;;;0.50;;
10430;SDS011;5262;59.958;17.726;2023-02-28T06:24:00;0.77;;;0.30;;
10430;SDS011;5262;59.958;17.726;2023-02-28T06:26:27;1.33;;;0.40;;
10430;SDS011;5262;59.958;17.726;2023-02-28T06:28:52;0.50;;;0.40;;
10430;SDS011;5262;59.958;17.726;2023-02-28T06:31:18;0.43;;;0.40;;
10430;SDS011;5262;59.958;17.726;2023-02-28T06:33:45;1.17;;;0.97;;
10430;SDS011;5262;59.958;17.726;2023-02-28T06:36:12;0.87;;;0.70;;
10430;SDS011;5262;59.958;17.726;2023-02-28T06:38:38;1.47;;;0.90;;
10430;SDS011;5262;59.958;17.726;2023-02-28T06:41:05;1.73;;;0.70;;
10430;SDS011;5262;59.958;17.726;2023-02-28T06:43:33;0.50;;;0.30;;
10430;SDS011;5262;59.958;17.726;2023-02-28T06:46:01;0.63;;;0.40;;
10430;SDS011;5262;59.958;17.726;2023-02-28T06:48:29;0.50;;;0.33;;
10430;SDS011;5262;59.958;17.726;2023-02-28T06:51:11;0.67;;;0.40;;
10430;SDS011;5262;59.958;17.726;2023-02-28T06:53:45;0.80;;;0.53;;
10430;SDS011;5262;59.958;17.726;2023-02-28T06:56:12;1.03;;;0.77;;
10430;SDS011;5262;59.958;17.726;2023-02-28T06:58:39;1.00;;;0.60;;
10430;SDS011;5262;59.958;17.726;2023-02-28T07:01:05;0.90;;;0.60;;
10430;SDS011;5262;59.958;17.726;2023-02-28T07:03:31;1.30;;;0.70;;
10430;SDS011;5262;59.958;17.726;2023-02-28T07:05:57;1.93;;;0.80;;
10430;SDS011;5262;59.958;17.726;2023-02-28T07:08:23;0.90;;;0.83;;
10430;SDS011;5262;59.958;17.726;2023-02-28T07:10:53;1.60;;;1.20;;
10430;SDS011;5262;59.958;17.726;2023-02-28T07:13:20;1.47;;;0.90;;
10430;SDS011;5262;59.958;17.726;2023-02-28T07:15:56;1.30;;;1.10;;
10430;SDS011;5262;59.958;17.726;2023-02-28T07:18:34;1.23;;;0.90;;
10430;SDS011;5262;59.958;17.726;2023-02-28T07:21:04;1.77;;;1.60;;
10430;SDS011;5262;59.958;17.726;2023-02-28T07:23:31;1.90;;;1.70;;
10430;SDS011;5262;59.958;17.726;2023-02-28T07:25:57;1.20;;;1.10;;
10430;SDS011;5262;59.958;17.726;2023-02-28T07:28:24;1.20;;;1.00;;
10430;SDS011;5262;59.958;17.726;2023-02-28T07:30:49;1.00;;;0.90;;
10430;SDS011;5262;59.958;17.726;2023-02-28T07:33:15;0.70;;;0.70;;
10430;SDS011;5262;59.958;17.726;2023-02-28T07:35:41;1.30;;;0.70;;
10430;SDS011;5262;59.958;17.726;2023-02-28T07:38:07;0.83;;;0.70;;
10430;SDS011;5262;59.958;17.726;2023-02-28T07:40:33;0.60;;;0.60;;
10430;SDS011;5262;59.958;17.726;2023-02-28T07:43:01;2.73;;;0.60;;
10430;SDS011;5262;59.958;17.726;2023-02-28T07:45:27;1.40;;;0.50;;
10430;SDS011;5262;59.958;17.726;2023-02-28T07:47:54;1.23;;;0.50;;
10430;SDS011;5262;59.958;17.726;2023-02-28T07:50:20;0.90;;;0.60;;
10430;SDS011;5262;59.958;17.726;2023-02-28T07:52:46;1.20;;;0.90;;
10430;SDS011;5262;59.958;17.726;2023-02-28T07:55:12;2.97;;;1.83;;
10430;SDS011;5262;59.958;17.726;2023-02-28T07:57:38;0.77;;;0.57;;
10430;SDS011;5262;59.958;17.726;2023-02-28T08:00:05;0.90;;;0.57;;
10430;SDS011;5262;59.958;17.726;2023-02-28T08:02:34;1.00;;;0.60;;
10430;SDS011;5262;59.958;17.726;2023-02-28T08:05:00;0.50;;;0.30;;
10430;SDS011;5262;59.958;17.726;2023-02-28T08:07:26;0.40;;;0.30;;
10430;SDS011;5262;59.958;17.726;2023-02-28T08:09:52;0.50;;;0.30;;
10430;SDS011;5262;59.958;17.726;2023-02-28T08:12:18;1.07;;;0.33;;
10430;SDS011;5262;59.958;17.726;2023-02-28T08:14:43;0.60;;;0.40;;
10430;SDS011;5262;59.958;17.726;2023-02-28T08:17:09;0.87;;;0.30;;
10430;SDS011;5262;59.958;17.726;2023-02-28T08:19:36;0.30;;;0.20;;
10430;SDS011;5262;59.958;17.726;2023-02-28T08:22:01;0.40;;;0.40;;
10430;SDS011;5262;59.958;17.726;2023-02-28T08:24:27;0.40;;;0.30;;
10430;SDS011;5262;59.958;17.726;2023-02-28T08:26:53;0.50;;;0.30;;
10430;SDS011;5262;59.958;17.726;2023-02-28T08:29:19;0.73;;;0.40;;
10430;SDS011;5262;59.958;17.726;2023-02-28T08:31:45;0.43;;;0.30;;
10430;SDS011;5262;59.958;17.726;2023-02-28T08:34:14;0.50;;;0.30;;
10430;SDS011;5262;59.958;17.726;2023-02-28T08:36:41;0.70;;;0.40;;
10430;SDS011;5262;59.958;17.726;2023-02-28T08:39:09;1.00;;;0.60;;
10430;SDS011;5262;59.958;17.726;2023-02-28T08:41:35;0.20;;;0.10;;
10430;SDS011;5262;59.958;17.726;2023-02-28T08:44:00;0.20;;;0.20;;
10430;SDS011;5262;59.958;17.726;2023-02-28T08:46:26;0.30;;;0.20;;
10430;SDS011;5262;59.958;17.726;2023-02-28T08:48:52;0.30;;;0.20;;
10430;SDS011;5262;59.958;17.726;2023-02-28T08:51:19;0.30;;;0.20;;
10430;SDS011;5262;59.958;17.726;2023-02-28T08:53:51;0.20;;;0.20;;
10430;SDS011;5262;59.958;17.726;2023-02-28T08:56:18;0.60;;;0.30;;
10430;SDS011;5262;59.958;17.726;2023-02-28T08:58:44;0.20;;;0.20;;
10430;SDS011;5262;59.958;17.726;2023-02-28T09:01:15;0.27;;;0.20;;
10430;SDS011;5262;59.958;17.726;2023-02-28T09:03:49;0.30;;;0.20;;
10430;SDS011;5262;59.958;17.726;2023-02-28T09:06:17;0.30;;;0.20;;
10430;SDS011;5262;59.958;17.726;2023-02-28T09:08:43;0.20;;;0.20;;
10430;SDS011;5262;59.958;17.726;2023-02-28T09:11:09;0.20;;;0.10;;
10430;SDS011;5262;59.958;17.726;2023-02-28T09:13:36;0.20;;;0.20;;
10430;SDS011;5262;59.958;17.726;2023-02-28T09:16:03;0.60;;;0.40;;
10430;SDS011;5262;59.958;17.726;2023-02-28T09:18:30;0.77;;;0.30;;
10430;SDS011;5262;59.958;17.726;2023-02-28T09:20:56;0.50;;;0.30;;
10430;SDS011;5262;59.958;17.726;2023-02-28T09:23:22;0.50;;;0.33;;
10430;SDS011;5262;59.958;17.726;2023-02-28T09:25:50;0.50;;;0.40;;
10430;SDS011;5262;59.958;17.726;2023-02-28T09:28:17;0.90;;;0.70;;
10430;SDS011;5262;59.958;17.726;2023-02-28T09:30:44;1.50;;;0.90;;
10430;SDS011;5262;59.958;17.726;2023-02-28T09:33:11;1.57;;;1.13;;
10430;SDS011;5262;59.958;17.726;2023-02-28T09:35:38;1.60;;;0.40;;
10430;SDS011;5262;59.958;17.726;2023-02-28T09:38:04;1.93;;;1.20;;
10430;SDS011;5262;59.958;17.726;2023-02-28T09:40:30;1.00;;;0.70;;
10430;SDS011;5262;59.958;17.726;2023-02-28T09:42:56;0.37;;;0.23;;
10430;SDS011;5262;59.958;17.726;2023-02-28T09:45:32;0.20;;;0.10;;
10430;SDS011;5262;59.958;17.726;2023-02-28T09:48:07;0.67;;;0.20;;
10430;SDS011;5262;59.958;17.726;2023-02-28T09:55:51;0.63;;;0.33;;
10430;SDS011;5262;59.958;17.726;2023-02-28T10:01:20;1.47;;;0.20;;
10430;SDS011;5262;59.958;17.726;2023-02-28T10:03:55;0.30;;;0.20;;
10430;SDS011;5262;59.958;17.726;2023-02-28T10:06:34;1.50;;;0.30;;
10430;SDS011;5262;59.958;17.726;2023-02-28T10:12:03;1.60;;;0.30;;
10430;SDS011;5262;59.958;17.726;2023-02-28T10:14:31;0.93;;;0.40;;
10430;SDS011;5262;59.958;17.726;2023-02-28T10:17:01;0.20;;;0.20;;
10430;SDS011;5262;59.958;17.726;2023-02-28T10:22:16;0.43;;;0.20;;
10430;SDS011;5262;59.958;17.726;2023-02-28T10:24:47;1.37;;;0.20;;
10430;SDS011;5262;59.958;17.726;2023-02-28T10:29:44;0.57;;;0.30;;
10430;SDS011;5262;59.958;17.726;2023-02-28T10:32:15;0.80;;;0.27;;
10430;SDS011;5262;59.958;17.726;2023-02-28T10:34:43;0.93;;;0.37;;
10430;SDS011;5262;59.958;17.726;2023-02-28T10:37:10;2.10;;;0.30;;
10430;SDS011;5262;59.958;17.726;2023-02-28T10:39:39;0.30;;;0.23;;
10430;SDS011;5262;59.958;17.726;2023-02-28T10:42:18;0.33;;;0.20;;
10430;SDS011;5262;59.958;17.726;2023-02-28T10:44:44;1.53;;;0.20;;
10430;SDS011;5262;59.958;17.726;2023-02-28T10:47:16;2.60;;;0.30;;
10430;SDS011;5262;59.958;17.726;2023-02-28T10:49:48;1.95;;;0.40;;
10430;SDS011;5262;59.958;17.726;2023-02-28T10:52:31;2.23;;;0.40;;
10430;SDS011;5262;59.958;17.726;2023-02-28T10:57:47;2.58;;;0.20;;
10430;SDS011;5262;59.958;17.726;2023-02-28T11:00:15;1.52;;;0.43;;
10430;SDS011;5262;59.958;17.726;2023-02-28T11:02:46;0.97;;;0.20;;
10430;SDS011;5262;59.958;17.726;2023-02-28T11:05:22;1.80;;;0.20;;
10430;SDS011;5262;59.958;17.726;2023-02-28T11:08:12;0.50;;;0.22;;
10430;SDS011;5262;59.958;17.726;2023-02-28T11:10:43;0.20;;;0.20;;
10430;SDS011;5262;59.958;17.726;2023-02-28T11:13:18;0.40;;;0.30;;
10430;SDS011;5262;59.958;17.726;2023-02-28T11:15:54;1.13;;;0.20;;
10430;SDS011;5262;59.958;17.726;2023-02-28T11:21:24;0.77;;;0.27;;
10430;SDS011;5262;59.958;17.726;2023-02-28T11:24:02;0.40;;;0.23;;
10430;SDS011;5262;59.958;17.726;2023-02-28T11:26:45;0.70;;;0.20;;
10430;SDS011;5262;59.958;17.726;2023-02-28T11:29:47;0.90;;;0.20;;
10430;SDS011;5262;59.958;17.726;2023-02-28T11:32:13;0.50;;;0.20;;
10430;SDS011;5262;59.958;17.726;2023-02-28T11:34:44;0.67;;;0.30;;
10430;SDS011;5262;59.958;17.726;2023-02-28T11:37:15;1.30;;;0.17;;
10430;SDS011;5262;59.958;17.726;2023-02-28T11:39:44;0.97;;;0.40;;
10430;SDS011;5262;59.958;17.726;2023-02-28T11:53:21;0.30;;;0.20;;
10430;SDS011;5262;59.958;17.726;2023-02-28T11:56:09;0.57;;;0.30;;
10430;SDS011;5262;59.958;17.726;2023-02-28T11:59:00;1.08;;;0.40;;
10430;SDS011;5262;59.958;17.726;2023-02-28T12:01:59;1.40;;;0.40;;
10430;SDS011;5262;59.958;17.726;2023-02-28T12:16:25;1.80;;;0.77;;
10430;SDS011;5262;59.958;17.726;2023-02-28T12:21:54;1.30;;;0.60;;
10430;SDS011;5262;59.958;17.726;2023-02-28T12:24:39;0.60;;;0.47;;
10430;SDS011;5262;59.958;17.726;2023-02-28T12:27:24;2.60;;;0.60;;
10430;SDS011;5262;59.958;17.726;2023-02-28T12:32:26;0.73;;;0.60;;
10430;SDS011;5262;59.958;17.726;2023-02-28T12:37:47;2.65;;;1.33;;
10430;SDS011;5262;59.958;17.726;2023-02-28T12:40:26;2.77;;;1.40;;
10430;SDS011;5262;59.958;17.726;2023-02-28T12:43:12;1.33;;;0.70;;
10430;SDS011;5262;59.958;17.726;2023-02-28T12:45:42;1.47;;;0.60;;
10430;SDS011;5262;59.958;17.726;2023-02-28T12:48:09;4.70;;;2.90;;
10430;SDS011;5262;59.958;17.726;2023-02-28T12:50:40;3.37;;;2.03;;
10430;SDS011;5262;59.958;17.726;2023-02-28T12:53:08;3.80;;;2.07;;
10430;SDS011;5262;59.958;17.726;2023-02-28T12:55:47;1.17;;;0.70;;
10430;SDS011;5262;59.958;17.726;2023-02-28T13:01:10;0.80;;;0.40;;
10430;SDS011;5262;59.958;17.726;2023-02-28T13:09:56;1.47;;;0.90;;
10430;SDS011;5262;59.958;17.726;2023-02-28T13:12:24;0.60;;;0.47;;
10430;SDS011;5262;59.958;17.726;2023-02-28T13:14:51;0.50;;;0.33;;
10430;SDS011;5262;59.958;17.726;2023-02-28T13:17:38;0.60;;;0.50;;
10430;SDS011;5262;59.958;17.726;2023-02-28T13:20:19;0.50;;;0.40;;
10430;SDS011;5262;59.958;17.726;2023-02-28T13:22:53;0.97;;;0.40;;
10430;SDS011;5262;59.958;17.726;2023-02-28T13:28:11;0.93;;;0.33;;
10430;SDS011;5262;59.958;17.726;2023-02-28T13:35:50;0.87;;;0.70;;
10430;SDS011;5262;59.958;17.726;2023-02-28T13:38:37;1.00;;;0.90;;
10430;SDS011;5262;59.958;17.726;2023-02-28T13:44:04;1.20;;;1.10;;
10430;SDS011;5262;59.958;17.726;2023-02-28T13:51:48;0.60;;;0.40;;
10430;SDS011;5262;59.958;17.726;2023-02-28T13:54:21;1.00;;;0.50;;
10430;SDS011;5262;59.958;17.726;2023-02-28T13:56:53;1.00;;;0.40;;
10430;SDS011;5262;59.958;17.726;2023-02-28T13:59:30;1.20;;;0.60;;
10430;SDS011;5262;59.958;17.726;2023-02-28T14:04:43;0.70;;;0.30;;
10430;SDS011;5262;59.958;17.726;2023-02-28T14:07:16;2.50;;;0.70;;
10430;SDS011;5262;59.958;17.726;2023-02-28T14:09:47;1.67;;;0.93;;
10430;SDS011;5262;59.958;17.726;2023-02-28T14:15:27;2.77;;;1.00;;
10430;SDS011;5262;59.958;17.726;2023-02-28T14:18:14;1.73;;;1.30;;
10430;SDS011;5262;59.958;17.726;2023-02-28T14:20:41;2.57;;;1.40;;
10430;SDS011;5262;59.958;17.726;2023-02-28T14:28:58;0.80;;;0.40;;
10430;SDS011;5262;59.958;17.726;2023-02-28T14:31:41;0.30;;;0.20;;
10430;SDS011;5262;59.958;17.726;2023-02-28T14:34:31;2.30;;;0.40;;
10430;SDS011;5262;59.958;17.726;2023-02-28T14:37:09;0.40;;;0.20;;
10430;SDS011;5262;59.958;17.726;2023-02-28T14:39:41;0.60;;;0.60;;
10430;SDS011;5262;59.958;17.726;2023-02-28T14:42:28;0.50;;;0.47;;
10430;SDS011;5262;59.958;17.726;2023-02-28T14:45:02;0.37;;;0.30;;
10430;SDS011;5262;59.958;17.726;2023-02-28T14:47:32;0.70;;;0.60;;
10430;SDS011;5262;59.958;17.726;2023-02-28T14:50:00;1.73;;;0.87;;
10430;SDS011;5262;59.958;17.726;2023-02-28T14:52:29;1.27;;;1.00;;
10430;SDS011;5262;59.958;17.726;2023-02-28T14:55:01;2.53;;;2.10;;
10430;SDS011;5262;59.958;17.726;2023-02-28T14:57:31;1.80;;;1.57;;
10430;SDS011;5262;59.958;17.726;2023-02-28T15:02:42;2.90;;;1.50;;
10430;SDS011;5262;59.958;17.726;2023-02-28T15:07:45;1.00;;;0.87;;
10430;SDS011;5262;59.958;17.726;2023-02-28T15:10:49;1.40;;;1.10;;
10430;SDS011;5262;59.958;17.726;2023-02-28T15:13:09;1.00;;;0.80;;
10430;SDS011;5262;59.958;17.726;2023-02-28T15:19:04;1.37;;;0.93;;
10430;SDS011;5262;59.958;17.726;2023-02-28T15:21:07;1.33;;;0.60;;
10430;SDS011;5262;59.958;17.726;2023-02-28T15:23:39;0.90;;;0.70;;
10430;SDS011;5262;59.958;17.726;2023-02-28T15:26:10;2.70;;;0.90;;
10430;SDS011;5262;59.958;17.726;2023-02-28T15:28:42;2.07;;;0.70;;
10430;SDS011;5262;59.958;17.726;2023-02-28T15:31:24;1.67;;;0.57;;
10430;SDS011;5262;59.958;17.726;2023-02-28T15:33:53;3.03;;;0.60;;
10430;SDS011;5262;59.958;17.726;2023-02-28T15:36:21;1.00;;;0.60;;
10430;SDS011;5262;59.958;17.726;2023-02-28T15:38:54;0.53;;;0.50;;
10430;SDS011;5262;59.958;17.726;2023-02-28T15:41:27;0.50;;;0.50;;
10430;SDS011;5262;59.958;17.726;2023-02-28T15:46:41;1.07;;;0.73;;
10430;SDS011;5262;59.958;17.726;2023-02-28T15:49:17;0.63;;;0.50;;
10430;SDS011;5262;59.958;17.726;2023-02-28T15:51:44;1.43;;;0.40;;
10430;SDS011;5262;59.958;17.726;2023-02-28T15:54:15;1.17;;;0.50;;
10430;SDS011;5262;59.958;17.726;2023-02-28T15:56:46;1.40;;;0.60;;
10430;SDS011;5262;59.958;17.726;2023-02-28T15:59:26;0.83;;;0.30;;
10430;SDS011;5262;59.958;17.726;2023-02-28T16:04:34;1.67;;;1.10;;
10430;SDS011;5262;59.958;17.726;2023-02-28T16:07:02;2.77;;;1.73;;
10430;SDS011;5262;59.958;17.726;2023-02-28T16:09:29;2.37;;;1.67;;
10430;SDS011;5262;59.958;17.726;2023-02-28T16:11:56;3.10;;;1.83;;
10430;SDS011;5262;59.958;17.726;2023-02-28T16:14:29;4.80;;;2.10;;
10430;SDS011;5262;59.958;17.726;2023-02-28T16:17:05;1.77;;;1.30;;
10430;SDS011;5262;59.958;17.726;2023-02-28T16:19:48;1.23;;;0.90;;
10430;SDS011;5262;59.958;17.726;2023-02-28T16:22:14;1.70;;;0.70;;
10430;SDS011;5262;59.958;17.726;2023-02-28T16:24:39;1.73;;;0.53;;
10430;SDS011;5262;59.958;17.726;2023-02-28T16:27:06;0.50;;;0.40;;
10430;SDS011;5262;59.958;17.726;2023-02-28T16:30:01;0.97;;;0.50;;
10430;SDS011;5262;59.958;17.726;2023-02-28T16:32:29;1.60;;;0.40;;
10430;SDS011;5262;59.958;17.726;2023-02-28T16:34:57;1.27;;;0.50;;
10430;SDS011;5262;59.958;17.726;2023-02-28T16:37:22;0.80;;;0.50;;
10430;SDS011;5262;59.958;17.726;2023-02-28T16:39:48;2.50;;;0.50;;
10430;SDS011;5262;59.958;17.726;2023-02-28T16:42:25;2.00;;;0.50;;
10430;SDS011;5262;59.958;17.726;2023-02-28T16:44:53;1.10;;;0.50;;
10430;SDS011;5262;59.958;17.726;2023-02-28T16:47:19;0.70;;;0.40;;
10430;SDS011;5262;59.958;17.726;2023-02-28T16:49:46;0.57;;;0.40;;
10430;SDS011;5262;59.958;17.726;2023-02-28T16:52:12;2.80;;;0.40;;
10430;SDS011;5262;59.958;17.726;2023-02-28T16:54:39;0.73;;;0.37;;
10430;SDS011;5262;59.958;17.726;2023-02-28T16:57:06;0.40;;;0.40;;
10430;SDS011;5262;59.958;17.726;2023-02-28T16:59:40;2.63;;;0.50;;
10430;SDS011;5262;59.958;17.726;2023-02-28T17:02:12;2.00;;;0.60;;
10430;SDS011;5262;59.958;17.726;2023-02-28T17:04:39;1.17;;;0.50;;
10430;SDS011;5262;59.958;17.726;2023-02-28T17:07:08;1.10;;;0.40;;
10430;SDS011;5262;59.958;17.726;2023-02-28T17:09:36;0.63;;;0.30;;
10430;SDS011;5262;59.958;17.726;2023-02-28T17:12:01;0.87;;;0.40;;
10430;SDS011;5262;59.958;17.726;2023-02-28T17:14:27;0.60;;;0.50;;
10430;SDS011;5262;59.958;17.726;2023-02-28T17:16:53;2.47;;;0.50;;
10430;SDS011;5262;59.958;17.726;2023-02-28T17:19:18;0.47;;;0.40;;
10430;SDS011;5262;59.958;17.726;2023-02-28T17:21:45;2.73;;;0.57;;
10430;SDS011;5262;59.958;17.726;2023-02-28T17:24:11;1.40;;;0.67;;